sensor_id;sensor_type;location;lat;lon;timestamp;P1;durP1;ratioP1;P2;durP2;ratioP2
25824;SDS011;13658;44.534;18.694;2023-11-21T00:00:31;237.23;;;115.68;;
25824;SDS011;13658;44.534;18.694;2023-11-21T00:02:57;233.38;;;112.75;;
25824;SDS011;13658;44.534;18.694;2023-11-21T00:05:23;227.38;;;111.53;;
25824;SDS011;13658;44.534;18.694;2023-11-21T00:07:52;268.33;;;124.65;;
25824;SDS011;13658;44.534;18.694;2023-11-21T00:10:18;240.25;;;117.78;;
25824;SDS011;13658;44.534;18.694;2023-11-21T00:12:44;194.90;;;97.50;;
25824;SDS011;13658;44.534;18.694;2023-11-21T00:15:19;212.10;;;105.80;;
25824;SDS011;13658;44.534;18.694;2023-11-21T00:17:45;217.68;;;103.45;;
25824;SDS011;13658;44.534;18.694;2023-11-21T00:20:15;175.60;;;87.63;;
25824;SDS011;13658;44.534;18.694;2023-11-21T00:22:41;199.68;;;97.40;;
25824;SDS011;13658;44.534;18.694;2023-11-21T00:25:11;194.48;;;95.65;;
25824;SDS011;13658;44.534;18.694;2023-11-21T00:27:42;174.27;;;85.20;;
25824;SDS011;13658;44.534;18.694;2023-11-21T00:30:11;170.30;;;84.82;;
25824;SDS011;13658;44.534;18.694;2023-11-21T00:32:44;150.73;;;78.63;;
25824;SDS011;13658;44.534;18.694;2023-11-21T00:35:13;163.85;;;81.75;;
25824;SDS011;13658;44.534;18.694;2023-11-21T00:37:42;153.75;;;78.25;;
25824;SDS011;13658;44.534;18.694;2023-11-21T00:40:11;137.43;;;69.50;;
25824;SDS011;13658;44.534;18.694;2023-11-21T00:42:42;153.07;;;74.72;;
25824;SDS011;13658;44.534;18.694;2023-11-21T00:45:09;174.90;;;90.00;;
25824;SDS011;13658;44.534;18.694;2023-11-21T00:47:35;162.18;;;82.03;;
25824;SDS011;13658;44.534;18.694;2023-11-21T00:50:01;125.47;;;65.20;;
25824;SDS011;13658;44.534;18.694;2023-11-21T00:52:27;115.15;;;60.10;;
25824;SDS011;13658;44.534;18.694;2023-11-21T00:55:05;111.68;;;58.53;;
25824;SDS011;13658;44.534;18.694;2023-11-21T00:57:33;100.13;;;51.92;;
25824;SDS011;13658;44.534;18.694;2023-11-21T01:00:02;103.63;;;54.63;;
25824;SDS011;13658;44.534;18.694;2023-11-21T01:02:46;98.18;;;49.58;;
25824;SDS011;13658;44.534;18.694;2023-11-21T01:05:13;105.25;;;54.60;;
25824;SDS011;13658;44.534;18.694;2023-11-21T01:07:42;98.82;;;51.83;;
25824;SDS011;13658;44.534;18.694;2023-11-21T01:10:20;96.13;;;52.10;;
25824;SDS011;13658;44.534;18.694;2023-11-21T01:12:49;114.15;;;62.08;;
25824;SDS011;13658;44.534;18.694;2023-11-21T01:15:18;121.13;;;61.00;;
25824;SDS011;13658;44.534;18.694;2023-11-21T01:17:47;104.80;;;57.03;;
25824;SDS011;13658;44.534;18.694;2023-11-21T01:20:17;110.63;;;58.92;;
25824;SDS011;13658;44.534;18.694;2023-11-21T01:22:46;111.05;;;57.92;;
25824;SDS011;13658;44.534;18.694;2023-11-21T01:25:17;117.13;;;61.50;;
25824;SDS011;13658;44.534;18.694;2023-11-21T01:27:43;122.88;;;59.75;;
25824;SDS011;13658;44.534;18.694;2023-11-21T01:30:09;114.43;;;60.08;;
25824;SDS011;13658;44.534;18.694;2023-11-21T01:32:44;122.93;;;61.20;;
25824;SDS011;13658;44.534;18.694;2023-11-21T01:35:19;119.28;;;60.88;;
25824;SDS011;13658;44.534;18.694;2023-11-21T01:37:48;128.75;;;63.53;;
25824;SDS011;13658;44.534;18.694;2023-11-21T01:40:17;123.28;;;61.47;;
25824;SDS011;13658;44.534;18.694;2023-11-21T01:42:47;102.53;;;54.30;;
25824;SDS011;13658;44.534;18.694;2023-11-21T01:45:13;95.18;;;50.55;;
25824;SDS011;13658;44.534;18.694;2023-11-21T01:47:42;87.95;;;48.08;;
25824;SDS011;13658;44.534;18.694;2023-11-21T01:50:16;81.97;;;45.15;;
25824;SDS011;13658;44.534;18.694;2023-11-21T01:52:48;84.60;;;43.70;;
25824;SDS011;13658;44.534;18.694;2023-11-21T01:55:30;79.85;;;44.45;;
25824;SDS011;13658;44.534;18.694;2023-11-21T01:57:57;86.45;;;46.53;;
25824;SDS011;13658;44.534;18.694;2023-11-21T02:00:26;78.00;;;45.13;;
25824;SDS011;13658;44.534;18.694;2023-11-21T02:05:49;49.08;;;27.08;;
25824;SDS011;13658;44.534;18.694;2023-11-21T02:13:35;79.00;;;43.80;;
25824;SDS011;13658;44.534;18.694;2023-11-21T02:16:04;84.75;;;45.17;;
25824;SDS011;13658;44.534;18.694;2023-11-21T02:18:34;91.97;;;51.53;;
25824;SDS011;13658;44.534;18.694;2023-11-21T02:21:04;93.43;;;48.25;;
25824;SDS011;13658;44.534;18.694;2023-11-21T02:23:30;94.57;;;49.03;;
25824;SDS011;13658;44.534;18.694;2023-11-21T02:26:02;92.85;;;49.20;;
25824;SDS011;13658;44.534;18.694;2023-11-21T02:28:29;86.18;;;48.20;;
25824;SDS011;13658;44.534;18.694;2023-11-21T02:30:58;70.10;;;37.35;;
25824;SDS011;13658;44.534;18.694;2023-11-21T02:33:27;60.38;;;35.53;;
25824;SDS011;13658;44.534;18.694;2023-11-21T02:35:57;60.22;;;34.17;;
25824;SDS011;13658;44.534;18.694;2023-11-21T02:38:26;52.13;;;30.08;;
25824;SDS011;13658;44.534;18.694;2023-11-21T02:40:57;58.03;;;31.98;;
25824;SDS011;13658;44.534;18.694;2023-11-21T02:43:24;61.75;;;35.05;;
25824;SDS011;13658;44.534;18.694;2023-11-21T02:45:53;72.32;;;41.10;;
25824;SDS011;13658;44.534;18.694;2023-11-21T02:48:22;69.78;;;39.15;;
25824;SDS011;13658;44.534;18.694;2023-11-21T02:50:51;69.07;;;39.20;;
25824;SDS011;13658;44.534;18.694;2023-11-21T02:53:18;67.63;;;38.95;;
25824;SDS011;13658;44.534;18.694;2023-11-21T02:55:44;64.72;;;37.33;;
25824;SDS011;13658;44.534;18.694;2023-11-21T02:58:13;64.97;;;34.08;;
25824;SDS011;13658;44.534;18.694;2023-11-21T03:00:43;61.72;;;33.63;;
25824;SDS011;13658;44.534;18.694;2023-11-21T03:03:09;57.63;;;33.08;;
25824;SDS011;13658;44.534;18.694;2023-11-21T03:05:35;56.40;;;30.90;;
25824;SDS011;13658;44.534;18.694;2023-11-21T03:08:02;61.50;;;33.03;;
25824;SDS011;13658;44.534;18.694;2023-11-21T03:10:28;54.65;;;32.78;;
25824;SDS011;13658;44.534;18.694;2023-11-21T03:12:54;59.72;;;34.22;;
25824;SDS011;13658;44.534;18.694;2023-11-21T03:15:22;64.38;;;36.42;;
25824;SDS011;13658;44.534;18.694;2023-11-21T03:17:48;68.20;;;38.70;;
25824;SDS011;13658;44.534;18.694;2023-11-21T03:20:14;67.13;;;39.30;;
25824;SDS011;13658;44.534;18.694;2023-11-21T03:22:44;68.53;;;37.47;;
25824;SDS011;13658;44.534;18.694;2023-11-21T03:25:13;62.92;;;35.22;;
25824;SDS011;13658;44.534;18.694;2023-11-21T03:27:41;55.75;;;30.98;;
25824;SDS011;13658;44.534;18.694;2023-11-21T03:30:11;53.60;;;30.40;;
25824;SDS011;13658;44.534;18.694;2023-11-21T03:32:41;56.63;;;32.22;;
25824;SDS011;13658;44.534;18.694;2023-11-21T03:35:10;62.15;;;35.10;;
25824;SDS011;13658;44.534;18.694;2023-11-21T03:37:36;52.63;;;30.13;;
25824;SDS011;13658;44.534;18.694;2023-11-21T03:40:06;45.75;;;28.25;;
25824;SDS011;13658;44.534;18.694;2023-11-21T03:42:34;51.92;;;30.17;;
25824;SDS011;13658;44.534;18.694;2023-11-21T03:45:00;49.55;;;27.80;;
25824;SDS011;13658;44.534;18.694;2023-11-21T03:47:27;47.08;;;26.45;;
25824;SDS011;13658;44.534;18.694;2023-11-21T03:49:53;55.50;;;31.80;;
25824;SDS011;13658;44.534;18.694;2023-11-21T03:52:19;55.70;;;32.90;;
25824;SDS011;13658;44.534;18.694;2023-11-21T03:54:45;58.10;;;33.85;;
25824;SDS011;13658;44.534;18.694;2023-11-21T03:57:11;59.65;;;34.47;;
25824;SDS011;13658;44.534;18.694;2023-11-21T03:59:39;56.92;;;34.72;;
25824;SDS011;13658;44.534;18.694;2023-11-21T04:02:06;61.45;;;34.40;;
25824;SDS011;13658;44.534;18.694;2023-11-21T04:04:33;54.35;;;30.13;;
25824;SDS011;13658;44.534;18.694;2023-11-21T04:06:59;56.13;;;32.33;;
25824;SDS011;13658;44.534;18.694;2023-11-21T04:09:25;58.70;;;32.67;;
25824;SDS011;13658;44.534;18.694;2023-11-21T04:11:51;60.60;;;34.00;;
25824;SDS011;13658;44.534;18.694;2023-11-21T04:14:18;65.72;;;37.28;;
25824;SDS011;13658;44.534;18.694;2023-11-21T04:16:44;65.53;;;37.63;;
25824;SDS011;13658;44.534;18.694;2023-11-21T04:19:10;64.65;;;35.65;;
25824;SDS011;13658;44.534;18.694;2023-11-21T04:21:36;61.13;;;34.05;;
25824;SDS011;13658;44.534;18.694;2023-11-21T04:24:06;70.45;;;38.65;;
25824;SDS011;13658;44.534;18.694;2023-11-21T04:26:35;67.80;;;39.25;;
25824;SDS011;13658;44.534;18.694;2023-11-21T04:29:01;61.25;;;35.17;;
25824;SDS011;13658;44.534;18.694;2023-11-21T04:31:27;56.35;;;33.90;;
25824;SDS011;13658;44.534;18.694;2023-11-21T04:33:55;64.05;;;37.63;;
25824;SDS011;13658;44.534;18.694;2023-11-21T04:36:21;60.22;;;34.08;;
25824;SDS011;13658;44.534;18.694;2023-11-21T04:38:47;52.40;;;32.17;;
25824;SDS011;13658;44.534;18.694;2023-11-21T04:41:13;58.30;;;33.83;;
25824;SDS011;13658;44.534;18.694;2023-11-21T04:43:39;64.35;;;36.60;;
25824;SDS011;13658;44.534;18.694;2023-11-21T04:46:05;66.72;;;37.45;;
25824;SDS011;13658;44.534;18.694;2023-11-21T04:48:32;69.03;;;39.35;;
25824;SDS011;13658;44.534;18.694;2023-11-21T04:50:58;60.30;;;34.17;;
25824;SDS011;13658;44.534;18.694;2023-11-21T04:53:24;57.95;;;34.28;;
25824;SDS011;13658;44.534;18.694;2023-11-21T04:55:50;60.47;;;35.72;;
25824;SDS011;13658;44.534;18.694;2023-11-21T04:58:16;57.20;;;32.90;;
25824;SDS011;13658;44.534;18.694;2023-11-21T05:00:42;58.53;;;33.78;;
25824;SDS011;13658;44.534;18.694;2023-11-21T05:03:09;60.38;;;35.05;;
25824;SDS011;13658;44.534;18.694;2023-11-21T05:05:35;56.97;;;33.58;;
25824;SDS011;13658;44.534;18.694;2023-11-21T05:08:01;52.58;;;31.35;;
25824;SDS011;13658;44.534;18.694;2023-11-21T05:10:27;50.17;;;29.25;;
25824;SDS011;13658;44.534;18.694;2023-11-21T05:12:54;53.65;;;31.42;;
25824;SDS011;13658;44.534;18.694;2023-11-21T05:15:20;57.00;;;33.67;;
25824;SDS011;13658;44.534;18.694;2023-11-21T05:17:46;46.25;;;28.55;;
25824;SDS011;13658;44.534;18.694;2023-11-21T05:20:17;48.15;;;29.30;;
25824;SDS011;13658;44.534;18.694;2023-11-21T05:22:46;52.30;;;30.13;;
25824;SDS011;13658;44.534;18.694;2023-11-21T05:25:13;68.05;;;38.83;;
25824;SDS011;13658;44.534;18.694;2023-11-21T05:27:39;56.65;;;32.70;;
25824;SDS011;13658;44.534;18.694;2023-11-21T05:30:05;53.80;;;32.08;;
25824;SDS011;13658;44.534;18.694;2023-11-21T05:32:34;52.47;;;31.63;;
25824;SDS011;13658;44.534;18.694;2023-11-21T05:35:00;53.28;;;33.25;;
25824;SDS011;13658;44.534;18.694;2023-11-21T05:37:26;59.05;;;33.83;;
25824;SDS011;13658;44.534;18.694;2023-11-21T05:39:52;54.97;;;33.83;;
25824;SDS011;13658;44.534;18.694;2023-11-21T05:42:21;56.08;;;33.42;;
25824;SDS011;13658;44.534;18.694;2023-11-21T05:44:48;57.83;;;34.92;;
25824;SDS011;13658;44.534;18.694;2023-11-21T05:47:14;53.15;;;32.58;;
25824;SDS011;13658;44.534;18.694;2023-11-21T05:49:40;57.95;;;34.88;;
25824;SDS011;13658;44.534;18.694;2023-11-21T05:52:07;61.10;;;37.85;;
25824;SDS011;13658;44.534;18.694;2023-11-21T05:54:33;59.40;;;35.67;;
25824;SDS011;13658;44.534;18.694;2023-11-21T05:56:59;68.20;;;40.50;;
25824;SDS011;13658;44.534;18.694;2023-11-21T05:59:25;76.57;;;47.53;;
25824;SDS011;13658;44.534;18.694;2023-11-21T06:01:51;81.28;;;47.30;;
25824;SDS011;13658;44.534;18.694;2023-11-21T06:04:17;83.03;;;48.40;;
25824;SDS011;13658;44.534;18.694;2023-11-21T06:06:43;80.88;;;47.75;;
25824;SDS011;13658;44.534;18.694;2023-11-21T06:09:09;76.03;;;46.13;;
25824;SDS011;13658;44.534;18.694;2023-11-21T06:11:37;63.58;;;38.28;;
25824;SDS011;13658;44.534;18.694;2023-11-21T06:14:03;60.90;;;36.80;;
25824;SDS011;13658;44.534;18.694;2023-11-21T06:16:29;63.22;;;37.60;;
25824;SDS011;13658;44.534;18.694;2023-11-21T06:18:55;68.60;;;41.38;;
25824;SDS011;13658;44.534;18.694;2023-11-21T06:21:21;56.17;;;35.10;;
25824;SDS011;13658;44.534;18.694;2023-11-21T06:23:50;68.38;;;38.88;;
25824;SDS011;13658;44.534;18.694;2023-11-21T06:26:21;62.80;;;37.63;;
25824;SDS011;13658;44.534;18.694;2023-11-21T06:28:47;81.55;;;47.40;;
25824;SDS011;13658;44.534;18.694;2023-11-21T06:31:13;99.15;;;57.35;;
25824;SDS011;13658;44.534;18.694;2023-11-21T06:33:39;96.53;;;54.25;;
25824;SDS011;13658;44.534;18.694;2023-11-21T06:36:23;102.25;;;58.78;;
25824;SDS011;13658;44.534;18.694;2023-11-21T06:38:52;107.68;;;61.58;;
25824;SDS011;13658;44.534;18.694;2023-11-21T06:41:18;99.05;;;54.90;;
25824;SDS011;13658;44.534;18.694;2023-11-21T06:43:56;103.15;;;56.92;;
25824;SDS011;13658;44.534;18.694;2023-11-21T06:46:27;140.80;;;74.25;;
25824;SDS011;13658;44.534;18.694;2023-11-21T06:48:59;92.53;;;54.08;;
25824;SDS011;13658;44.534;18.694;2023-11-21T06:51:25;83.93;;;49.20;;
25824;SDS011;13658;44.534;18.694;2023-11-21T06:53:54;82.68;;;47.28;;
25824;SDS011;13658;44.534;18.694;2023-11-21T06:56:20;80.45;;;48.05;;
25824;SDS011;13658;44.534;18.694;2023-11-21T06:58:46;81.28;;;46.78;;
25824;SDS011;13658;44.534;18.694;2023-11-21T07:01:17;81.82;;;47.13;;
25824;SDS011;13658;44.534;18.694;2023-11-21T07:03:43;95.63;;;52.63;;
25824;SDS011;13658;44.534;18.694;2023-11-21T07:06:09;95.13;;;54.40;;
25824;SDS011;13658;44.534;18.694;2023-11-21T07:08:38;104.47;;;59.72;;
25824;SDS011;13658;44.534;18.694;2023-11-21T07:11:07;104.25;;;60.35;;
25824;SDS011;13658;44.534;18.694;2023-11-21T07:13:33;102.13;;;59.03;;
25824;SDS011;13658;44.534;18.694;2023-11-21T07:15:59;90.93;;;53.10;;
25824;SDS011;13658;44.534;18.694;2023-11-21T07:18:25;118.60;;;66.75;;
25824;SDS011;13658;44.534;18.694;2023-11-21T07:20:51;98.05;;;56.58;;
25824;SDS011;13658;44.534;18.694;2023-11-21T07:23:17;100.82;;;57.78;;
25824;SDS011;13658;44.534;18.694;2023-11-21T07:25:43;88.13;;;52.90;;
25824;SDS011;13658;44.534;18.694;2023-11-21T07:28:09;74.70;;;45.05;;
25824;SDS011;13658;44.534;18.694;2023-11-21T07:30:35;75.57;;;45.00;;
25824;SDS011;13658;44.534;18.694;2023-11-21T07:33:01;76.97;;;46.50;;
25824;SDS011;13658;44.534;18.694;2023-11-21T07:35:27;71.65;;;42.78;;
25824;SDS011;13658;44.534;18.694;2023-11-21T07:37:53;76.32;;;45.10;;
25824;SDS011;13658;44.534;18.694;2023-11-21T07:40:18;71.47;;;42.58;;
25824;SDS011;13658;44.534;18.694;2023-11-21T07:42:45;73.40;;;42.65;;
25824;SDS011;13658;44.534;18.694;2023-11-21T07:45:11;73.72;;;44.70;;
25824;SDS011;13658;44.534;18.694;2023-11-21T07:47:37;77.50;;;46.15;;
25824;SDS011;13658;44.534;18.694;2023-11-21T07:50:04;79.93;;;47.70;;
25824;SDS011;13658;44.534;18.694;2023-11-21T07:52:32;107.25;;;56.70;;
25824;SDS011;13658;44.534;18.694;2023-11-21T07:54:58;136.40;;;79.50;;
25824;SDS011;13658;44.534;18.694;2023-11-21T07:57:24;141.52;;;83.55;;
25824;SDS011;13658;44.534;18.694;2023-11-21T07:59:51;147.13;;;85.25;;
25824;SDS011;13658;44.534;18.694;2023-11-21T08:02:19;146.85;;;83.75;;
25824;SDS011;13658;44.534;18.694;2023-11-21T08:04:44;143.93;;;85.95;;
25824;SDS011;13658;44.534;18.694;2023-11-21T08:07:10;143.23;;;84.15;;
25824;SDS011;13658;44.534;18.694;2023-11-21T08:09:36;143.05;;;84.63;;
25824;SDS011;13658;44.534;18.694;2023-11-21T08:12:03;143.05;;;79.68;;
25824;SDS011;13658;44.534;18.694;2023-11-21T08:14:30;131.82;;;76.55;;
25824;SDS011;13658;44.534;18.694;2023-11-21T08:16:56;126.53;;;71.30;;
25824;SDS011;13658;44.534;18.694;2023-11-21T08:19:23;127.25;;;73.57;;
25824;SDS011;13658;44.534;18.694;2023-11-21T08:21:52;133.27;;;75.00;;
25824;SDS011;13658;44.534;18.694;2023-11-21T08:24:20;124.50;;;74.47;;
25824;SDS011;13658;44.534;18.694;2023-11-21T08:26:46;129.35;;;76.20;;
25824;SDS011;13658;44.534;18.694;2023-11-21T08:29:12;135.88;;;81.75;;
25824;SDS011;13658;44.534;18.694;2023-11-21T08:31:38;141.95;;;87.32;;
25824;SDS011;13658;44.534;18.694;2023-11-21T08:34:04;134.23;;;82.05;;
25824;SDS011;13658;44.534;18.694;2023-11-21T08:36:30;129.60;;;80.93;;
25824;SDS011;13658;44.534;18.694;2023-11-21T08:38:56;143.35;;;85.18;;
25824;SDS011;13658;44.534;18.694;2023-11-21T08:41:23;143.93;;;86.28;;
25824;SDS011;13658;44.534;18.694;2023-11-21T08:43:51;145.05;;;89.15;;
25824;SDS011;13658;44.534;18.694;2023-11-21T08:46:19;138.45;;;83.72;;
25824;SDS011;13658;44.534;18.694;2023-11-21T08:48:45;133.45;;;80.93;;
25824;SDS011;13658;44.534;18.694;2023-11-21T08:51:11;146.75;;;90.15;;
25824;SDS011;13658;44.534;18.694;2023-11-21T08:53:39;170.15;;;105.68;;
25824;SDS011;13658;44.534;18.694;2023-11-21T08:56:05;161.93;;;99.10;;
25824;SDS011;13658;44.534;18.694;2023-11-21T08:58:32;177.55;;;99.47;;
25824;SDS011;13658;44.534;18.694;2023-11-21T09:00:58;148.57;;;94.82;;
25824;SDS011;13658;44.534;18.694;2023-11-21T09:03:24;154.43;;;93.57;;
25824;SDS011;13658;44.534;18.694;2023-11-21T09:05:50;142.50;;;88.97;;
25824;SDS011;13658;44.534;18.694;2023-11-21T09:08:16;142.18;;;86.90;;
25824;SDS011;13658;44.534;18.694;2023-11-21T09:10:42;124.20;;;77.38;;
25824;SDS011;13658;44.534;18.694;2023-11-21T09:13:10;132.43;;;83.13;;
25824;SDS011;13658;44.534;18.694;2023-11-21T09:15:37;141.82;;;89.50;;
25824;SDS011;13658;44.534;18.694;2023-11-21T09:18:03;131.98;;;81.40;;
25824;SDS011;13658;44.534;18.694;2023-11-21T09:20:30;139.18;;;87.88;;
25824;SDS011;13658;44.534;18.694;2023-11-21T09:22:56;159.45;;;98.50;;
25824;SDS011;13658;44.534;18.694;2023-11-21T09:25:22;141.88;;;91.88;;
25824;SDS011;13658;44.534;18.694;2023-11-21T09:27:48;153.43;;;91.45;;
25824;SDS011;13658;44.534;18.694;2023-11-21T09:30:14;136.70;;;81.85;;
25824;SDS011;13658;44.534;18.694;2023-11-21T09:32:41;129.38;;;82.88;;
25824;SDS011;13658;44.534;18.694;2023-11-21T09:35:10;137.20;;;84.60;;
25824;SDS011;13658;44.534;18.694;2023-11-21T09:37:37;140.10;;;86.95;;
25824;SDS011;13658;44.534;18.694;2023-11-21T09:40:03;146.05;;;92.55;;
25824;SDS011;13658;44.534;18.694;2023-11-21T09:42:37;136.35;;;86.28;;
25824;SDS011;13658;44.534;18.694;2023-11-21T09:45:08;123.28;;;77.43;;
25824;SDS011;13658;44.534;18.694;2023-11-21T09:47:43;113.55;;;72.13;;
25824;SDS011;13658;44.534;18.694;2023-11-21T09:50:09;113.72;;;70.20;;
25824;SDS011;13658;44.534;18.694;2023-11-21T09:52:39;113.43;;;71.43;;
25824;SDS011;13658;44.534;18.694;2023-11-21T09:55:22;107.95;;;71.97;;
25824;SDS011;13658;44.534;18.694;2023-11-21T09:57:52;119.70;;;73.82;;
25824;SDS011;13658;44.534;18.694;2023-11-21T10:00:22;119.28;;;77.28;;
25824;SDS011;13658;44.534;18.694;2023-11-21T10:02:52;125.30;;;77.05;;
25824;SDS011;13658;44.534;18.694;2023-11-21T10:05:18;128.25;;;77.90;;
25824;SDS011;13658;44.534;18.694;2023-11-21T10:07:48;131.43;;;83.25;;
25824;SDS011;13658;44.534;18.694;2023-11-21T10:10:15;138.48;;;86.07;;
25824;SDS011;13658;44.534;18.694;2023-11-21T10:12:45;143.23;;;91.97;;
25824;SDS011;13658;44.534;18.694;2023-11-21T10:15:21;151.07;;;94.07;;
25824;SDS011;13658;44.534;18.694;2023-11-21T10:17:48;150.07;;;96.20;;
25824;SDS011;13658;44.534;18.694;2023-11-21T10:20:18;157.43;;;99.20;;
25824;SDS011;13658;44.534;18.694;2023-11-21T10:22:45;152.60;;;92.63;;
25824;SDS011;13658;44.534;18.694;2023-11-21T10:25:14;160.90;;;101.05;;
25824;SDS011;13658;44.534;18.694;2023-11-21T10:27:49;140.82;;;90.22;;
25824;SDS011;13658;44.534;18.694;2023-11-21T10:30:27;136.60;;;85.05;;
25824;SDS011;13658;44.534;18.694;2023-11-21T10:33:00;135.93;;;86.50;;
25824;SDS011;13658;44.534;18.694;2023-11-21T10:35:46;138.90;;;86.47;;
25824;SDS011;13658;44.534;18.694;2023-11-21T10:38:19;138.65;;;88.63;;
25824;SDS011;13658;44.534;18.694;2023-11-21T10:40:47;148.23;;;92.60;;
25824;SDS011;13658;44.534;18.694;2023-11-21T10:43:14;130.50;;;84.10;;
25824;SDS011;13658;44.534;18.694;2023-11-21T10:45:43;131.25;;;83.50;;
25824;SDS011;13658;44.534;18.694;2023-11-21T10:48:13;135.77;;;85.70;;
25824;SDS011;13658;44.534;18.694;2023-11-21T10:50:43;131.50;;;83.75;;
25824;SDS011;13658;44.534;18.694;2023-11-21T10:53:13;131.20;;;79.95;;
25824;SDS011;13658;44.534;18.694;2023-11-21T10:55:42;127.47;;;81.63;;
25824;SDS011;13658;44.534;18.694;2023-11-21T10:58:23;135.85;;;84.68;;
25824;SDS011;13658;44.534;18.694;2023-11-21T11:00:49;128.98;;;78.82;;
25824;SDS011;13658;44.534;18.694;2023-11-21T11:03:17;107.65;;;66.80;;
25824;SDS011;13658;44.534;18.694;2023-11-21T11:05:46;95.22;;;59.10;;
25824;SDS011;13658;44.534;18.694;2023-11-21T11:08:20;74.32;;;49.63;;
25824;SDS011;13658;44.534;18.694;2023-11-21T11:10:51;63.40;;;43.58;;
25824;SDS011;13658;44.534;18.694;2023-11-21T11:13:18;67.55;;;46.30;;
25824;SDS011;13658;44.534;18.694;2023-11-21T11:15:51;65.63;;;44.38;;
25824;SDS011;13658;44.534;18.694;2023-11-21T11:18:24;65.63;;;43.80;;
25824;SDS011;13658;44.534;18.694;2023-11-21T11:20:53;61.88;;;41.38;;
25824;SDS011;13658;44.534;18.694;2023-11-21T11:23:36;58.95;;;40.72;;
25824;SDS011;13658;44.534;18.694;2023-11-21T11:26:26;66.65;;;43.75;;
25824;SDS011;13658;44.534;18.694;2023-11-21T11:29:30;68.05;;;44.22;;
25824;SDS011;13658;44.534;18.694;2023-11-21T11:35:14;67.45;;;45.22;;
25824;SDS011;13658;44.534;18.694;2023-11-21T11:37:48;62.67;;;44.42;;
25824;SDS011;13658;44.534;18.694;2023-11-21T11:40:15;64.20;;;42.53;;
25824;SDS011;13658;44.534;18.694;2023-11-21T11:43:02;65.30;;;43.00;;
25824;SDS011;13658;44.534;18.694;2023-11-21T11:45:33;60.08;;;41.67;;
25824;SDS011;13658;44.534;18.694;2023-11-21T11:48:19;62.85;;;42.28;;
25824;SDS011;13658;44.534;18.694;2023-11-21T11:53:46;68.07;;;44.53;;
25824;SDS011;13658;44.534;18.694;2023-11-21T11:56:23;61.78;;;42.65;;
25824;SDS011;13658;44.534;18.694;2023-11-21T11:58:56;77.25;;;48.33;;
25824;SDS011;13658;44.534;18.694;2023-11-21T12:01:24;67.53;;;43.95;;
25824;SDS011;13658;44.534;18.694;2023-11-21T12:06:52;64.90;;;41.58;;
25824;SDS011;13658;44.534;18.694;2023-11-21T12:11:47;67.78;;;44.72;;
25824;SDS011;13658;44.534;18.694;2023-11-21T12:14:14;64.72;;;42.38;;
25824;SDS011;13658;44.534;18.694;2023-11-21T12:16:41;64.70;;;41.80;;
25824;SDS011;13658;44.534;18.694;2023-11-21T12:19:11;75.28;;;48.42;;
25824;SDS011;13658;44.534;18.694;2023-11-21T12:21:38;72.20;;;46.45;;
25824;SDS011;13658;44.534;18.694;2023-11-21T12:24:06;62.80;;;39.53;;
25824;SDS011;13658;44.534;18.694;2023-11-21T12:26:34;58.53;;;35.85;;
25824;SDS011;13658;44.534;18.694;2023-11-21T12:29:01;63.25;;;39.10;;
25824;SDS011;13658;44.534;18.694;2023-11-21T12:31:29;60.45;;;39.35;;
25824;SDS011;13658;44.534;18.694;2023-11-21T12:33:56;54.10;;;33.95;;
25824;SDS011;13658;44.534;18.694;2023-11-21T12:36:22;48.53;;;31.95;;
25824;SDS011;13658;44.534;18.694;2023-11-21T12:38:49;47.65;;;31.25;;
25824;SDS011;13658;44.534;18.694;2023-11-21T12:41:15;45.00;;;30.88;;
25824;SDS011;13658;44.534;18.694;2023-11-21T12:43:42;43.90;;;30.30;;
25824;SDS011;13658;44.534;18.694;2023-11-21T12:46:10;46.38;;;28.83;;
25824;SDS011;13658;44.534;18.694;2023-11-21T12:48:39;43.65;;;28.52;;
25824;SDS011;13658;44.534;18.694;2023-11-21T12:51:10;45.88;;;30.70;;
25824;SDS011;13658;44.534;18.694;2023-11-21T12:53:40;47.22;;;33.28;;
25824;SDS011;13658;44.534;18.694;2023-11-21T12:56:10;48.30;;;31.33;;
25824;SDS011;13658;44.534;18.694;2023-11-21T12:58:37;46.03;;;30.88;;
25824;SDS011;13658;44.534;18.694;2023-11-21T13:01:07;48.00;;;31.77;;
25824;SDS011;13658;44.534;18.694;2023-11-21T13:03:45;41.17;;;28.35;;
25824;SDS011;13658;44.534;18.694;2023-11-21T13:06:14;41.10;;;29.25;;
25824;SDS011;13658;44.534;18.694;2023-11-21T13:08:41;43.25;;;29.73;;
25824;SDS011;13658;44.534;18.694;2023-11-21T13:11:10;44.58;;;30.67;;
25824;SDS011;13658;44.534;18.694;2023-11-21T13:13:36;46.65;;;31.98;;
25824;SDS011;13658;44.534;18.694;2023-11-21T13:16:05;50.30;;;33.72;;
25824;SDS011;13658;44.534;18.694;2023-11-21T13:18:33;43.45;;;29.27;;
25824;SDS011;13658;44.534;18.694;2023-11-21T13:21:02;45.20;;;30.67;;
25824;SDS011;13658;44.534;18.694;2023-11-21T13:26:04;43.15;;;27.33;;
25824;SDS011;13658;44.534;18.694;2023-11-21T13:28:31;49.22;;;35.63;;
25824;SDS011;13658;44.534;18.694;2023-11-21T13:30:58;41.28;;;28.75;;
25824;SDS011;13658;44.534;18.694;2023-11-21T13:33:44;35.70;;;25.27;;
25824;SDS011;13658;44.534;18.694;2023-11-21T13:36:15;47.75;;;33.50;;
25824;SDS011;13658;44.534;18.694;2023-11-21T13:38:48;49.38;;;32.67;;
25824;SDS011;13658;44.534;18.694;2023-11-21T13:41:19;39.13;;;26.15;;
25824;SDS011;13658;44.534;18.694;2023-11-21T13:43:53;34.30;;;22.88;;
25824;SDS011;13658;44.534;18.694;2023-11-21T13:48:57;31.75;;;20.90;;
25824;SDS011;13658;44.534;18.694;2023-11-21T13:51:22;32.10;;;23.27;;
25824;SDS011;13658;44.534;18.694;2023-11-21T13:54:01;35.15;;;23.90;;
25824;SDS011;13658;44.534;18.694;2023-11-21T13:56:27;32.67;;;22.95;;
25824;SDS011;13658;44.534;18.694;2023-11-21T13:58:54;35.33;;;24.67;;
25824;SDS011;13658;44.534;18.694;2023-11-21T14:01:21;39.03;;;25.00;;
25824;SDS011;13658;44.534;18.694;2023-11-21T14:03:55;40.15;;;26.17;;
25824;SDS011;13658;44.534;18.694;2023-11-21T14:06:34;39.20;;;25.83;;
25824;SDS011;13658;44.534;18.694;2023-11-21T14:09:11;39.38;;;26.80;;
25824;SDS011;13658;44.534;18.694;2023-11-21T14:11:39;35.63;;;23.70;;
25824;SDS011;13658;44.534;18.694;2023-11-21T14:14:05;42.38;;;27.02;;
25824;SDS011;13658;44.534;18.694;2023-11-21T14:16:31;38.33;;;25.67;;
25824;SDS011;13658;44.534;18.694;2023-11-21T14:18:57;44.42;;;28.02;;
25824;SDS011;13658;44.534;18.694;2023-11-21T14:21:29;44.92;;;28.70;;
25824;SDS011;13658;44.534;18.694;2023-11-21T14:23:55;51.95;;;31.30;;
25824;SDS011;13658;44.534;18.694;2023-11-21T14:26:21;49.20;;;32.53;;
25824;SDS011;13658;44.534;18.694;2023-11-21T14:28:49;50.67;;;32.72;;
25824;SDS011;13658;44.534;18.694;2023-11-21T14:31:16;51.13;;;33.20;;
25824;SDS011;13658;44.534;18.694;2023-11-21T14:33:45;49.03;;;33.13;;
25824;SDS011;13658;44.534;18.694;2023-11-21T14:36:11;43.65;;;28.00;;